Terminal Aerodrome Forecast
Issued by NWS

Home | Current Version | Previous Version | Text Only | Print | Product List | Glossary On
Versions: 1 2 3 4 5 6 7 8 9 10 11 12 13 14 15 16 17 18 19 20 21 22 23 24 25 26 27 28 29 30 31 32
000
FTUS46 KLOX 090139 AAA
TAFLAX
TAF AMD
KLAX 090139Z 0902/1006 26008KT P6SM FEW150
     FM090400 VRB03KT P6SM BKN025 BKN060
     FM090800 VRB03KT 5SM -RA BR BKN007 OVC015
     FM091600 VRB03KT P6SM SCT010 BKN020 OVC050
     FM092100 26010KT P6SM OVC040=

USA.gov is the U.S. government's official web portal to all federal, state and local government web resources and services.